Time;durP1;ratioP1;P1;durP2;ratioP2;P2;SDS_P1;SDS_P2;PMS_P1;PMS_P2;Temp;Humidity;BMP_temperature;BMP_pressure;BME280_temperature;BME280_humidity;BME280_pressure;Samples;Min_cycle;Max_cycle;Signal;HPM_P1;HPM_P2
2022/11/16 00:01:33;;;;;;;9.77;5.27;;;10.90;1.00;;;;;;4902792;29;20197;-65
2022/11/16 00:04:02;;;;;;;6.10;4.97;;;10.90;1.00;;;;;;4880932;29;20232;-64
2022/11/16 00:06:29;;;;;;;8.37;5.27;;;10.90;99.90;;;;;;4883201;29;20308;-62
2022/11/16 00:11:52;;;;;;;9.87;6.07;;;10.80;1.00;;;;;;4899070;29;20223;-63
2022/11/16 00:14:20;;;;;;;10.00;5.93;;;10.80;99.90;;;;;;4868233;29;20197;-62
2022/11/16 00:16:48;;;;;;;8.60;6.20;;;10.70;1.00;;;;;;4900677;29;20193;-63
2022/11/16 00:19:15;;;;;;;8.73;7.07;;;10.70;1.00;;;;;;4898976;29;20204;-62
2022/11/16 00:21:42;;;;;;;8.53;6.70;;;10.70;99.90;;;;;;4884200;29;20522;-63
2022/11/16 00:24:12;;;;;;;9.87;6.57;;;10.70;99.90;;;;;;4882895;29;20264;-62
2022/11/16 00:26:39;;;;;;;10.17;6.93;;;10.70;1.00;;;;;;4881351;29;20691;-62
2022/11/16 00:29:06;;;;;;;8.70;7.20;;;10.60;99.90;;;;;;4900257;29;20205;-62
2022/11/16 00:31:32;;;;;;;11.33;7.63;;;10.60;1.00;;;;;;4899809;29;20219;-62
2022/11/16 00:33:59;;;;;;;8.37;6.80;;;10.60;1.00;;;;;;4894666;29;20813;-63
2022/11/16 00:36:26;;;;;;;11.83;7.07;;;10.50;1.00;;;;;;4891529;29;20660;-65
2022/11/16 00:38:53;;;;;;;9.67;7.40;;;10.50;99.90;;;;;;4899259;29;20206;-63
2022/11/16 00:41:20;;;;;;;10.80;7.27;;;10.50;99.90;;;;;;4896431;29;20296;-63
2022/11/16 00:43:47;;;;;;;14.20;7.60;;;10.50;1.00;;;;;;4899361;29;20732;-62
2022/11/16 00:46:15;;;;;;;11.73;7.60;;;10.50;99.90;;;;;;4878012;29;20221;-63
2022/11/16 00:48:42;;;;;;;12.80;7.77;;;10.50;1.00;;;;;;4883519;29;20219;-65
2022/11/16 00:51:09;;;;;;;8.97;7.50;;;10.50;1.00;;;;;;4896003;29;20240;-62
2022/11/16 00:53:35;;;;;;;12.20;7.97;;;10.40;1.00;;;;;;4899172;29;20192;-63
2022/11/16 00:56:03;;;;;;;9.13;7.13;;;10.40;99.90;;;;;;4880590;29;20303;-62
2022/11/16 00:58:37;;;;;;;10.20;7.60;;;10.40;99.90;;;;;;4871846;29;20782;-62
2022/11/16 01:01:08;;;;;;;13.10;7.80;;;10.40;99.90;;;;;;4899546;29;20870;-62
2022/11/16 01:03:35;;;;;;;10.87;7.93;;;10.40;99.90;;;;;;4867788;29;20219;-60
2022/11/16 01:06:05;;;;;;;14.53;7.93;;;10.40;99.90;;;;;;4895699;29;20287;-59
2022/11/16 01:08:32;;;;;;;8.70;7.40;;;10.30;99.90;;;;;;4869514;29;20559;-62
2022/11/16 01:12:07;;;;;;;0.30;0.30;;;10.30;99.90;;;;;;4896729;29;20205;-61
2022/11/16 01:13:47;;;;;;;0.40;0.40;;;10.20;99.90;;;;;;4895229;29;20224;-60
2022/11/16 01:16:15;;;;;;;0.40;0.40;;;10.20;99.90;;;;;;4883670;29;20564;-61
2022/11/16 01:18:46;;;;;;;0.40;0.40;;;10.20;99.90;;;;;;4898216;29;20260;-62
2022/11/16 01:21:13;;;;;;;0.33;0.33;;;10.20;99.90;;;;;;4898777;29;20291;-60
2022/11/16 01:23:40;;;;;;;0.40;0.40;;;10.20;99.90;;;;;;4891227;29;20204;-62
2022/11/16 01:26:07;;;;;;;0.40;0.40;;;10.10;99.90;;;;;;4894346;29;20220;-63
2022/11/16 01:28:35;;;;;;;0.40;0.40;;;10.20;99.90;;;;;;4899643;29;20661;-62
2022/11/16 01:31:02;;;;;;;0.40;0.40;;;10.20;99.90;;;;;;4893084;29;20204;-62
2022/11/16 01:33:34;;;;;;;0.40;0.40;;;10.10;99.90;;;;;;4885349;29;20736;-61
2022/11/16 01:36:01;;;;;;;0.40;0.40;;;10.10;99.90;;;;;;4881753;29;20209;-62
2022/11/16 01:38:28;;;;;;;0.40;0.40;;;10.10;99.90;;;;;;4898461;29;20208;-62
2022/11/16 01:40:56;;;;;;;0.40;0.40;;;10.10;99.90;;;;;;4882915;29;20808;-64
2022/11/16 01:43:27;;;;;;;0.40;0.40;;;10.10;99.90;;;;;;4868745;29;20209;-62
2022/11/16 01:46:01;;;;;;;0.30;0.30;;;10.00;99.90;;;;;;4895473;29;20238;-62
2022/11/16 01:48:30;;;;;;;0.40;0.40;;;10.10;99.90;;;;;;4881996;29;20340;-61
2022/11/16 01:50:57;;;;;;;0.30;0.30;;;10.30;99.90;;;;;;4899888;29;20256;-63
2022/11/16 01:53:26;;;;;;;0.40;0.40;;;10.30;99.90;;;;;;4869109;29;20302;-62
2022/11/16 01:55:55;;;;;;;0.30;0.30;;;10.30;99.90;;;;;;4878587;29;20231;-63
2022/11/16 01:58:43;;;;;;;0.40;0.40;;;10.30;99.90;;;;;;4893895;29;20197;-61
2022/11/16 02:01:22;;;;;;;0.40;0.40;;;10.30;99.90;;;;;;4882450;29;20292;-63
2022/11/16 02:03:53;;;;;;;0.40;0.40;;;10.30;99.90;;;;;;4898599;29;20662;-62
2022/11/16 02:06:26;;;;;;;0.40;0.40;;;10.30;99.90;;;;;;4863075;29;21233;-62
2022/11/16 02:12:29;;;;;;;0.40;0.40;;;10.30;99.90;;;;;;4897222;29;20217;-63
2022/11/16 02:15:37;;;;;;;1.50;1.50;;;10.20;99.90;;;;;;4895302;29;20249;-62
2022/11/16 02:18:30;;;;;;;0.40;0.40;;;10.30;99.90;;;;;;4878071;29;20205;-62
2022/11/16 02:21:17;;;;;;;0.40;0.40;;;10.20;99.90;;;;;;4895701;29;20808;-62
2022/11/16 02:24:17;;;;;;;0.40;0.40;;;10.30;99.90;;;;;;4882140;29;20201;-61
2022/11/16 02:27:14;;;;;;;0.40;0.40;;;10.30;99.90;;;;;;4894287;29;20224;-63
2022/11/16 02:29:50;;;;;;;0.40;0.40;;;10.30;99.90;;;;;;4891074;29;20602;-64
2022/11/16 02:32:31;;;;;;;0.87;0.87;;;10.30;99.90;;;;;;4899314;29;20188;-62
2022/11/16 02:35:02;;;;;;;0.40;0.40;;;10.30;99.90;;;;;;4894331;29;20259;-63
2022/11/16 02:37:38;;;;;;;0.30;0.30;;;10.30;99.90;;;;;;4848462;29;20229;-63
2022/11/16 02:40:08;;;;;;;0.40;0.40;;;10.30;99.90;;;;;;4893811;29;20703;-61
2022/11/16 02:42:48;;;;;;;0.40;0.40;;;10.30;99.90;;;;;;4887340;29;21037;-62
2022/11/16 02:45:26;;;;;;;0.40;0.40;;;10.30;99.90;;;;;;4878702;29;20208;-62
2022/11/16 02:48:00;;;;;;;0.40;0.40;;;10.20;99.90;;;;;;4866126;29;20564;-61
2022/11/16 02:50:28;;;;;;;0.37;0.37;;;10.30;99.90;;;;;;4897813;29;21140;-60
2022/11/16 02:52:55;;;;;;;0.40;0.40;;;10.30;99.90;;;;;;4899601;29;20246;-61
2022/11/16 02:55:27;;;;;;;0.40;0.40;;;10.30;99.90;;;;;;4896792;29;20201;-60
2022/11/16 02:57:58;;;;;;;0.33;0.33;;;10.30;99.90;;;;;;4876491;29;20304;-62
2022/11/16 03:00:47;;;;;;;0.40;0.40;;;10.30;99.90;;;;;;4894043;29;20208;-60
2022/11/16 03:03:36;;;;;;;0.40;0.40;;;10.30;99.90;;;;;;4881615;29;20331;-60
2022/11/16 03:06:11;;;;;;;0.40;0.40;;;10.30;99.90;;;;;;4896341;29;20243;-60
2022/11/16 03:08:45;;;;;;;0.30;0.30;;;10.30;99.90;;;;;;4880013;29;20199;-60
2022/11/16 03:14:10;;;;;;;0.30;0.30;;;10.40;99.90;;;;;;4893171;29;20212;-61
2022/11/16 03:16:42;;;;;;;0.40;0.40;;;10.30;99.90;;;;;;4862053;29;20204;-63
2022/11/16 03:19:16;;;;;;;0.40;0.40;;;10.30;99.90;;;;;;4893634;29;20256;-64
2022/11/16 03:21:48;;;;;;;0.40;0.40;;;10.30;99.90;;;;;;4894797;29;20268;-61
2022/11/16 03:24:18;;;;;;;0.40;0.40;;;10.30;99.90;;;;;;4868711;29;20892;-62
2022/11/16 03:26:55;;;;;;;0.40;0.40;;;10.40;99.90;;;;;;4895169;29;20374;-61
2022/11/16 03:29:32;;;;;;;0.40;0.40;;;10.40;99.90;;;;;;4880181;29;20233;-62
2022/11/16 03:32:22;;;;;;;0.40;0.40;;;10.40;99.90;;;;;;4867691;29;20257;-63
2022/11/16 03:35:01;;;;;;;0.30;0.30;;;10.40;99.90;;;;;;4886587;29;20205;-64
2022/11/16 03:37:29;;;;;;;0.40;0.40;;;10.40;99.90;;;;;;4872269;29;20209;-61
2022/11/16 03:39:59;;;;;;;0.40;0.40;;;10.40;99.90;;;;;;4887287;29;20236;-63
2022/11/16 03:42:30;;;;;;;0.40;0.40;;;10.40;99.90;;;;;;4889557;29;20635;-62
2022/11/16 03:44:57;;;;;;;0.40;0.40;;;10.40;99.90;;;;;;4899754;29;20206;-62
2022/11/16 03:47:25;;;;;;;0.40;0.40;;;10.40;99.90;;;;;;4898178;29;20196;-62
2022/11/16 03:49:52;;;;;;;0.40;0.40;;;10.40;99.90;;;;;;4897564;29;20632;-65
2022/11/16 03:52:19;;;;;;;0.40;0.40;;;10.40;99.90;;;;;;4883540;29;20244;-65
2022/11/16 03:54:48;;;;;;;0.40;0.40;;;10.40;99.90;;;;;;4880924;29;20224;-66
2022/11/16 03:57:17;;;;;;;0.40;0.40;;;10.50;99.90;;;;;;4880796;29;20576;-66
2022/11/16 03:59:50;;;;;;;0.50;0.50;;;10.50;99.90;;;;;;4896909;29;20555;-66
2022/11/16 04:02:17;;;;;;;0.40;0.40;;;10.50;99.90;;;;;;4895740;29;20211;-66
2022/11/16 04:24:18;;;;;;;0.40;0.40;;;10.30;99.90;;;;;;4881357;29;20277;-66
2022/11/16 04:29:38;;;;;;;0.60;0.60;;;10.20;99.90;;;;;;4899127;29;20193;-64
2022/11/16 04:37:53;;;;;;;0.30;0.30;;;10.20;99.90;;;;;;4896039;29;20204;-66
2022/11/16 04:40:28;;;;;;;0.40;0.40;;;10.20;99.90;;;;;;4864982;29;20335;-65
2022/11/16 04:42:58;;;;;;;0.40;0.40;;;10.30;99.90;;;;;;4882460;29;20295;-64
2022/11/16 04:48:19;;;;;;;0.40;0.40;;;10.30;99.90;;;;;;4896636;29;20319;-66
2022/11/16 04:50:49;;;;;;;0.47;0.47;;;10.30;99.90;;;;;;4883281;29;20286;-66
2022/11/16 04:53:17;;;;;;;0.20;0.20;;;10.30;99.90;;;;;;4882820;29;20205;-65
2022/11/16 04:55:49;;;;;;;0.40;0.40;;;10.40;99.90;;;;;;4878765;29;20197;-65
2022/11/16 04:58:19;;;;;;;0.40;0.40;;;10.40;99.90;;;;;;4895335;29;20283;-66
2022/11/16 05:00:47;;;;;;;0.30;0.30;;;10.40;99.90;;;;;;4884410;29;20196;-66
2022/11/16 05:03:13;;;;;;;0.30;0.30;;;10.40;99.90;;;;;;4896507;29;20607;-66
2022/11/16 05:05:41;;;;;;;0.30;0.30;;;10.40;99.90;;;;;;4893284;29;20229;-66
2022/11/16 05:08:08;;;;;;;0.40;0.40;;;10.40;99.90;;;;;;4896687;29;20305;-66
2022/11/16 05:10:36;;;;;;;0.40;0.40;;;10.40;99.90;;;;;;4882137;29;20220;-67
2022/11/16 05:13:03;;;;;;;0.27;0.27;;;10.40;99.90;;;;;;4877499;29;21535;-66
2022/11/16 05:15:31;;;;;;;0.77;0.77;;;10.40;99.90;;;;;;4864441;29;20201;-66
2022/11/16 05:17:59;;;;;;;0.30;0.30;;;10.40;99.90;;;;;;4893273;29;21821;-66
2022/11/16 05:26:12;;;;;;;0.40;0.40;;;10.40;99.90;;;;;;4897036;29;20220;-65
2022/11/16 05:28:39;;;;;;;0.37;0.37;;;10.40;99.90;;;;;;4898306;29;20846;-65
2022/11/16 05:31:08;;;;;;;0.40;0.40;;;10.40;99.90;;;;;;4883026;29;20213;-65
2022/11/16 05:33:35;;;;;;;0.30;0.30;;;10.40;99.90;;;;;;4884638;29;20200;-65
2022/11/16 05:36:03;;;;;;;0.40;0.40;;;10.40;99.90;;;;;;4881672;29;20216;-65
2022/11/16 05:38:30;;;;;;;0.30;0.30;;;10.40;99.90;;;;;;4882538;29;20267;-65
2022/11/16 05:40:59;;;;;;;0.30;0.30;;;10.40;99.90;;;;;;4869801;29;20200;-65
2022/11/16 05:43:28;;;;;;;0.33;0.33;;;10.40;99.90;;;;;;4895810;29;20192;-66
2022/11/16 05:46:06;;;;;;;0.40;0.40;;;10.40;99.90;;;;;;4893663;29;20224;-65
2022/11/16 05:48:34;;;;;;;0.30;0.30;;;10.40;99.90;;;;;;4899110;29;20212;-65
2022/11/16 05:51:03;;;;;;;0.40;0.40;;;10.40;99.90;;;;;;4869037;29;20620;-65
2022/11/16 05:53:32;;;;;;;0.40;0.40;;;10.40;99.90;;;;;;4896302;29;20286;-65
2022/11/16 05:56:00;;;;;;;0.40;0.40;;;10.40;99.90;;;;;;4880991;29;20236;-65
2022/11/16 05:58:28;;;;;;;0.40;0.40;;;10.50;99.90;;;;;;4882213;29;20204;-64
2022/11/16 06:00:57;;;;;;;0.30;0.30;;;10.40;99.90;;;;;;4880289;29;20703;-64
2022/11/16 06:03:27;;;;;;;0.40;0.40;;;10.50;99.90;;;;;;4881064;29;20208;-65
2022/11/16 06:05:55;;;;;;;0.40;0.40;;;10.50;99.90;;;;;;4893178;29;20244;-64
2022/11/16 06:08:24;;;;;;;0.40;0.40;;;10.50;99.90;;;;;;4882285;29;20195;-64
2022/11/16 06:10:53;;;;;;;0.40;0.40;;;10.50;99.90;;;;;;4895982;29;20682;-63
2022/11/16 06:13:20;;;;;;;0.40;0.40;;;10.50;99.90;;;;;;4878358;29;20223;-63
2022/11/16 06:15:50;;;;;;;0.40;0.40;;;10.50;99.90;;;;;;4888557;29;20201;-63
2022/11/16 06:18:18;;;;;;;0.40;0.40;;;10.50;99.90;;;;;;4880940;29;20261;-64
2022/11/16 06:20:47;;;;;;;0.53;0.53;;;10.50;99.90;;;;;;4864085;29;22157;-66
2022/11/16 06:23:13;;;;;;;0.40;0.40;;;10.60;99.90;;;;;;4895125;29;20204;-65
2022/11/16 06:25:41;;;;;;;0.40;0.40;;;10.50;99.90;;;;;;4896144;29;20192;-64
2022/11/16 06:28:09;;;;;;;0.33;0.33;;;10.50;99.90;;;;;;4880387;29;20207;-64
2022/11/16 06:30:39;;;;;;;0.40;0.40;;;10.50;99.90;;;;;;4890822;29;20201;-65
2022/11/16 06:33:07;;;;;;;0.30;0.30;;;10.50;99.90;;;;;;4867917;29;20205;-64
2022/11/16 06:35:35;;;;;;;0.27;0.27;;;10.50;99.90;;;;;;4883783;29;20224;-63
2022/11/16 06:38:03;;;;;;;0.37;0.37;;;10.60;99.90;;;;;;4899378;29;20205;-64
2022/11/16 06:40:31;;;;;;;0.40;0.40;;;10.60;99.90;;;;;;4895817;29;20679;-64
2022/11/16 06:42:59;;;;;;;0.30;0.30;;;10.60;99.90;;;;;;4883354;29;20268;-64
2022/11/16 06:45:26;;;;;;;0.40;0.40;;;10.60;99.90;;;;;;4893100;29;20261;-64
2022/11/16 06:47:56;;;;;;;0.40;0.40;;;10.60;99.90;;;;;;4895127;29;20219;-65
2022/11/16 06:50:23;;;;;;;0.40;0.40;;;10.60;99.90;;;;;;4895854;29;20202;-65
2022/11/16 06:52:50;;;;;;;0.40;0.40;;;10.60;99.90;;;;;;4896162;29;20200;-65
2022/11/16 06:55:18;;;;;;;0.30;0.30;;;10.60;99.90;;;;;;4880037;29;20253;-65
2022/11/16 06:57:46;;;;;;;0.40;0.40;;;10.60;99.90;;;;;;4881807;29;20240;-64
2022/11/16 07:00:15;;;;;;;0.40;0.40;;;10.60;99.90;;;;;;4880738;29;20201;-64
2022/11/16 07:02:42;;;;;;;0.40;0.40;;;10.60;99.90;;;;;;4868135;29;20320;-65
2022/11/16 07:05:12;;;;;;;0.37;0.37;;;10.60;99.90;;;;;;4883650;29;20240;-65
2022/11/16 07:07:40;;;;;;;0.40;0.40;;;10.60;99.90;;;;;;4879786;29;20315;-65
2022/11/16 07:10:08;;;;;;;0.40;0.40;;;10.50;99.90;;;;;;4893494;29;20211;-65
2022/11/16 07:12:36;;;;;;;0.40;0.40;;;10.60;99.90;;;;;;4876504;29;20975;-64
2022/11/16 07:15:05;;;;;;;0.40;0.40;;;10.60;99.90;;;;;;4896038;29;20201;-64
2022/11/16 07:17:35;;;;;;;0.40;0.40;;;10.60;99.90;;;;;;4882188;29;20208;-64
2022/11/16 07:20:03;;;;;;;0.40;0.40;;;10.60;99.90;;;;;;4872669;29;20719;-65
2022/11/16 07:22:31;;;;;;;0.40;0.40;;;10.60;99.90;;;;;;4895410;29;20196;-65
2022/11/16 07:24:58;;;;;;;0.30;0.30;;;10.60;99.90;;;;;;4895033;29;20650;-65
2022/11/16 07:27:25;;;;;;;0.30;0.30;;;10.60;99.90;;;;;;4896213;29;20713;-65
2022/11/16 07:29:52;;;;;;;0.40;0.40;;;10.60;99.90;;;;;;4872444;29;20304;-65
2022/11/16 07:32:38;;;;;;;0.40;0.40;;;10.60;99.90;;;;;;4897955;29;20227;-65
2022/11/16 07:35:31;;;;;;;0.40;0.40;;;10.60;99.90;;;;;;4893981;29;20216;-64
2022/11/16 07:38:00;;;;;;;0.40;0.40;;;10.60;99.90;;;;;;4878347;29;20212;-64
2022/11/16 07:40:27;;;;;;;0.30;0.30;;;10.60;99.90;;;;;;4895082;29;20205;-64
2022/11/16 07:42:57;;;;;;;0.40;0.40;;;10.70;99.90;;;;;;4862813;29;20842;-64
2022/11/16 07:45:36;;;;;;;0.30;0.30;;;10.70;99.90;;;;;;4894609;29;20200;-64
2022/11/16 07:48:06;;;;;;;0.37;0.37;;;10.70;99.90;;;;;;4893815;29;20714;-64
2022/11/16 07:51:00;;;;;;;0.40;0.40;;;10.70;99.90;;;;;;4893641;29;20305;-64
2022/11/16 07:53:30;;;;;;;0.40;0.40;;;10.70;99.90;;;;;;4887396;29;20229;-64
2022/11/16 07:55:57;;;;;;;0.40;0.40;;;10.70;99.90;;;;;;4896200;29;20217;-64
2022/11/16 07:58:27;;;;;;;0.40;0.40;;;10.80;99.90;;;;;;4881018;29;20715;-64
2022/11/16 08:01:12;;;;;;;0.30;0.30;;;10.90;99.90;;;;;;4866333;29;20209;-64
2022/11/16 08:03:41;;;;;;;0.40;0.40;;;10.90;99.90;;;;;;4891865;29;20315;-64
2022/11/16 08:06:20;;;;;;;0.40;0.40;;;10.90;99.90;;;;;;4875652;29;20684;-64
2022/11/16 08:08:47;;;;;;;0.40;0.40;;;10.80;99.90;;;;;;4894119;29;20215;-64
2022/11/16 08:11:16;;;;;;;0.40;0.40;;;10.80;99.90;;;;;;4880446;29;20277;-63
2022/11/16 08:13:44;;;;;;;0.40;0.40;;;10.80;99.90;;;;;;4880635;29;20220;-64
2022/11/16 08:16:12;;;;;;;0.40;0.40;;;10.80;99.90;;;;;;4898208;29;20317;-64
2022/11/16 08:18:41;;;;;;;0.40;0.40;;;10.80;99.90;;;;;;4870043;29;20747;-64
2022/11/16 08:21:11;;;;;;;0.37;0.37;;;10.90;99.90;;;;;;4879626;29;20260;-64
2022/11/16 08:23:39;;;;;;;0.40;0.40;;;11.00;99.90;;;;;;4884518;29;20256;-64
2022/11/16 08:26:09;;;;;;;0.40;0.40;;;11.10;99.90;;;;;;4894699;29;20217;-64
2022/11/16 08:28:38;;;;;;;0.30;0.30;;;11.00;99.90;;;;;;4897902;29;20227;-64
2022/11/16 08:31:15;;;;;;;0.37;0.37;;;11.10;99.90;;;;;;4880636;29;20241;-64
2022/11/16 08:33:44;;;;;;;0.30;0.30;;;11.20;99.90;;;;;;4890579;29;20204;-63
2022/11/16 08:36:16;;;;;;;0.37;0.37;;;11.30;99.90;;;;;;4892794;29;20197;-64
2022/11/16 08:38:48;;;;;;;0.40;0.40;;;11.50;99.90;;;;;;4879717;29;20205;-63
2022/11/16 08:41:19;;;;;;;0.40;0.40;;;11.80;99.90;;;;;;4884183;29;20204;-63
2022/11/16 08:43:46;;;;;;;0.30;0.30;;;11.80;99.90;;;;;;4870803;29;20248;-63
2022/11/16 08:46:14;;;;;;;0.40;0.40;;;12.00;99.90;;;;;;4886474;29;20264;-64
2022/11/16 08:48:43;;;;;;;0.30;0.30;;;12.10;99.90;;;;;;4898042;29;20225;-64
2022/11/16 08:51:16;;;;;;;0.30;0.30;;;12.30;99.90;;;;;;4901419;29;20204;-64
2022/11/16 08:53:57;;;;;;;0.30;0.30;;;12.20;99.90;;;;;;4880027;29;20209;-64
2022/11/16 08:56:26;;;;;;;0.40;0.40;;;11.80;99.90;;;;;;4884639;29;20944;-65
2022/11/16 08:58:53;;;;;;;0.20;0.20;;;12.10;99.90;;;;;;4897747;29;20222;-65
2022/11/16 09:01:27;;;;;;;0.30;0.30;;;12.40;99.90;;;;;;4881863;29;20213;-64
2022/11/16 09:03:54;;;;;;;0.30;0.30;;;12.50;99.90;;;;;;4898081;29;20232;-64
2022/11/16 09:06:23;;;;;;;0.30;0.30;;;12.80;99.90;;;;;;4898127;29;20211;-64
2022/11/16 09:08:50;;;;;;;0.30;0.30;;;13.00;99.90;;;;;;4895530;29;20204;-64
2022/11/16 09:11:20;;;;;;;0.30;0.30;;;12.60;99.90;;;;;;4899051;29;20207;-64
2022/11/16 09:13:49;;;;;;;1.03;1.03;;;12.60;99.90;;;;;;4900203;29;20254;-64
2022/11/16 09:16:19;;;;;;;0.30;0.30;;;12.80;99.90;;;;;;4898483;29;20217;-64
2022/11/16 09:18:48;;;;;;;0.30;0.30;;;13.60;99.90;;;;;;4902228;29;20205;-64
2022/11/16 09:21:27;;;;;;;0.20;0.20;;;13.30;99.90;;;;;;4906116;29;20208;-64
2022/11/16 09:23:55;;;;;;;0.37;0.37;;;12.70;99.90;;;;;;4896348;29;20200;-64
2022/11/16 09:26:23;;;;;;;0.30;0.30;;;12.90;99.90;;;;;;4898818;29;20259;-64
2022/11/16 09:28:56;;;;;;;0.20;0.20;;;13.20;99.90;;;;;;4896584;29;20217;-64
2022/11/16 09:31:26;;;;;;;0.20;0.20;;;14.80;99.90;;;;;;4897558;29;20196;-64
2022/11/16 09:33:57;;;;;;;0.20;0.20;;;18.60;99.90;;;;;;4896472;29;20253;-65
2022/11/16 09:36:25;;;;;;;0.20;0.20;;;21.90;99.90;;;;;;4880407;29;20196;-65
2022/11/16 09:38:53;;;;;;;0.20;0.20;;;22.30;99.90;;;;;;4896325;29;20660;-65
2022/11/16 09:42:20;;;;;;;0.20;0.20;;;23.20;99.90;;;;;;4883736;29;20197;-65
2022/11/16 09:44:56;;;;;;;0.20;0.20;;;20.50;99.90;;;;;;4899518;29;20567;-65
2022/11/16 09:47:39;;;;;;;0.20;0.20;;;19.80;99.90;;;;;;4903956;29;20244;-65
2022/11/16 09:50:32;;;;;;;0.15;0.15;;;19.10;99.90;;;;;;4899660;29;20203;-65
2022/11/16 09:53:11;;;;;;;0.20;0.20;;;17.40;1.00;;;;;;4895902;29;20438;-64
2022/11/16 09:55:47;;;;;;;0.28;0.28;;;18.00;1.00;;;;;;4889129;29;20215;-64
2022/11/16 09:58:19;;;;;;;0.50;0.50;;;17.60;99.90;;;;;;4883104;29;20203;-64
2022/11/16 10:00:55;;;;;;;0.13;0.13;;;19.70;99.90;;;;;;4901521;29;20213;-65
2022/11/16 10:03:24;;;;;;;0.20;0.20;;;19.30;99.90;;;;;;4899741;29;20211;-64
2022/11/16 10:05:56;;;;;;;0.30;0.30;;;19.00;99.90;;;;;;4894988;29;20240;-65
2022/11/16 10:08:45;;;;;;;0.10;0.10;;;21.30;50.70;;;;;;4896630;29;20565;-64
2022/11/16 10:11:30;;;;;;;0.20;0.20;;;23.50;1.00;;;;;;4898583;29;20584;-65
2022/11/16 10:14:03;;;;;;;0.10;0.10;;;26.30;1.00;;;;;;4897366;29;20185;-64
2022/11/16 10:16:49;;;;;;;0.20;0.20;;;23.70;1.00;;;;;;4895215;29;20203;-64
2022/11/16 10:19:42;;;;;;;0.20;0.20;;;22.90;1.00;;;;;;4883305;29;20198;-64
2022/11/16 10:22:28;;;;;;;0.20;0.20;;;22.30;1.00;;;;;;4894976;29;20260;-64
2022/11/16 10:25:05;;;;;;;0.20;0.20;;;18.50;1.00;;;;;;4898777;29;20201;-65
2022/11/16 10:27:54;;;;;;;0.30;0.30;;;17.10;1.00;;;;;;4893385;29;20308;-64
2022/11/16 10:30:21;;;;;;;0.30;0.30;;;15.70;1.00;;;;;;4892356;29;20277;-66
2022/11/16 10:32:59;;;;;;;0.30;0.30;;;15.50;1.00;;;;;;4894082;29;20247;-65
2022/11/16 10:35:33;;;;;;;0.20;0.20;;;16.20;1.00;;;;;;4898336;29;20188;-65
2022/11/16 10:38:02;;;;;;;0.30;0.30;;;16.70;1.00;;;;;;4893606;29;20323;-65
2022/11/16 10:40:36;;;;;;;0.30;0.30;;;18.30;1.00;;;;;;4868123;29;20197;-65
2022/11/16 10:43:14;;;;;;;0.20;0.20;;;20.70;1.00;;;;;;4899458;29;20535;-65
2022/11/16 10:46:06;;;;;;;0.20;0.20;;;21.60;1.00;;;;;;4894213;29;20803;-64
2022/11/16 10:48:48;;;;;;;0.20;0.20;;;23.00;1.00;;;;;;4894601;29;20585;-65
2022/11/16 10:51:15;;;;;;;0.20;0.20;;;20.20;1.00;;;;;;4898277;29;20192;-65
2022/11/16 10:53:43;;;;;;;0.20;0.20;;;18.70;1.00;;;;;;4855014;29;20236;-65
2022/11/16 10:56:24;;;;;;;0.30;0.30;;;17.30;1.00;;;;;;4867482;29;20631;-65
2022/11/16 10:59:06;;;;;;;0.22;0.22;;;17.20;1.00;;;;;;4898326;29;20391;-64
2022/11/16 11:01:48;;;;;;;0.20;0.20;;;18.40;1.00;;;;;;4900743;29;20251;-64
2022/11/16 11:04:30;;;;;;;0.20;0.20;;;20.40;1.00;;;;;;4899966;29;20262;-63
2022/11/16 11:07:22;;;;;;;0.25;0.25;;;22.00;1.00;;;;;;4881648;29;20211;-65
2022/11/16 11:09:53;;;;;;;0.20;0.20;;;20.20;1.00;;;;;;4898105;29;20200;-65
2022/11/16 11:12:37;;;;;;;0.30;0.30;;;18.40;1.00;;;;;;4899169;29;20607;-66
2022/11/16 11:15:10;;;;;;;0.20;0.20;;;16.70;1.00;;;;;;4899349;29;20672;-65
2022/11/16 11:17:42;;;;;;;0.30;0.30;;;17.00;1.00;;;;;;4882785;29;20224;-64
2022/11/16 11:20:15;;;;;;;0.30;0.30;;;18.20;1.00;;;;;;4897150;29;20303;-66
2022/11/16 11:22:52;;;;;;;0.28;0.28;;;19.10;1.00;;;;;;4899143;29;20228;-64
2022/11/16 11:25:31;;;;;;;0.30;0.30;;;20.50;1.00;;;;;;4897096;29;20201;-64
2022/11/16 11:28:22;;;;;;;0.20;0.20;;;21.30;1.00;;;;;;4899210;29;20284;-64
2022/11/16 11:30:57;;;;;;;0.20;0.20;;;22.40;1.00;;;;;;4899203;29;20205;-65
2022/11/16 11:33:33;;;;;;;0.20;0.20;;;20.90;1.00;;;;;;4878242;29;20723;-65
2022/11/16 11:36:08;;;;;;;0.20;0.20;;;21.00;1.00;;;;;;4898799;29;20200;-64
2022/11/16 11:38:55;;;;;;;0.20;0.20;;;20.80;1.00;;;;;;4895592;29;20202;-65
2022/11/16 11:41:23;;;;;;;0.30;0.30;;;20.70;1.00;;;;;;4901601;29;20227;-65
2022/11/16 11:44:03;;;;;;;0.30;0.30;;;18.80;1.00;;;;;;4886385;29;20238;-66
2022/11/16 11:46:36;;;;;;;0.20;0.20;;;18.40;1.00;;;;;;4900333;29;20549;-66
2022/11/16 11:49:30;;;;;;;0.30;0.30;;;18.10;1.00;;;;;;4901079;29;20216;-65
2022/11/16 11:52:30;;;;;;;0.25;0.25;;;18.90;1.00;;;;;;4906064;29;20213;-65
2022/11/16 11:54:57;;;;;;;0.20;0.20;;;18.50;1.00;;;;;;4890326;29;20722;-65
2022/11/16 11:57:25;;;;;;;0.20;0.20;;;18.80;1.00;;;;;;4887961;29;20209;-65
2022/11/16 11:59:54;;;;;;;0.20;0.20;;;18.70;1.00;;;;;;4903155;29;20205;-66
2022/11/16 12:03:11;;;;;;;0.30;0.30;;;18.90;1.00;;;;;;4903192;29;20576;-66
2022/11/16 12:06:06;;;;;;;0.20;0.20;;;19.00;1.00;;;;;;4864273;29;20241;-64
2022/11/16 12:08:59;;;;;;;0.30;0.30;;;21.00;1.00;;;;;;4864874;29;20309;-65
2022/11/16 12:11:39;;;;;;;0.30;0.30;;;18.30;1.00;;;;;;4881849;29;20213;-65
2022/11/16 12:14:32;;;;;;;0.30;0.30;;;17.40;1.00;;;;;;4883701;29;20670;-65
2022/11/16 12:17:22;;;;;;;0.30;0.30;;;15.80;1.00;;;;;;4869468;29;20197;-65
2022/11/16 12:20:20;;;;;;;0.30;0.30;;;16.10;1.00;;;;;;4882968;29;20279;-65
2022/11/16 12:23:25;;;;;;;0.30;0.30;;;16.80;1.00;;;;;;4866493;29;20196;-65
2022/11/16 12:26:51;;;;;;;0.30;0.30;;;17.90;1.00;;;;;;4870562;29;20231;-65
2022/11/16 12:29:44;;;;;;;0.30;0.30;;;18.40;1.00;;;;;;4811183;29;20281;-64
2022/11/16 12:32:14;;;;;;;0.30;0.30;;;19.10;1.00;;;;;;4885297;29;20296;-66
2022/11/16 12:34:55;;;;;;;0.30;0.30;;;17.60;1.00;;;;;;4885263;29;20207;-66
2022/11/16 12:37:27;;;;;;;0.30;0.30;;;17.20;1.00;;;;;;4884489;29;20254;-65
2022/11/16 12:40:12;;;;;;;0.30;0.30;;;16.30;1.00;;;;;;4867170;29;20610;-66
2022/11/16 12:42:58;;;;;;;0.30;0.30;;;15.40;1.00;;;;;;4869620;29;20194;-65
2022/11/16 12:45:25;;;;;;;0.40;0.40;;;15.20;1.00;;;;;;4883798;29;20208;-65
2022/11/16 12:48:22;;;;;;;0.30;0.30;;;15.00;1.00;;;;;;4884415;29;20222;-65
2022/11/16 12:51:13;;;;;;;0.40;0.40;;;15.00;1.00;;;;;;4885109;29;20288;-64
2022/11/16 12:53:46;;;;;;;0.38;0.38;;;15.40;1.00;;;;;;4883600;29;20242;-65
2022/11/16 12:56:19;;;;;;;0.40;0.40;;;15.70;1.00;;;;;;4868446;29;20217;-66
2022/11/16 12:58:58;;;;;;;0.40;0.40;;;15.50;1.00;;;;;;4884502;29;20697;-64
2022/11/16 13:01:46;;;;;;;0.30;0.30;;;15.40;1.00;;;;;;4867852;29;20209;-65
2022/11/16 13:04:27;;;;;;;0.30;0.30;;;15.80;1.00;;;;;;4890496;29;20800;-66
2022/11/16 13:07:07;;;;;;;0.30;0.30;;;16.00;1.00;;;;;;4903937;29;20556;-65
2022/11/16 13:09:42;;;;;;;0.30;0.30;;;16.60;1.00;;;;;;4903606;29;20217;-66
2022/11/16 13:12:15;;;;;;;0.30;0.30;;;16.80;1.00;;;;;;4904201;29;20760;-66
2022/11/16 13:14:47;;;;;;;0.30;0.30;;;17.10;1.00;;;;;;4903692;29;20322;-65
2022/11/16 13:17:24;;;;;;;0.40;0.40;;;16.90;1.00;;;;;;4902759;29;20204;-66
2022/11/16 13:20:13;;;;;;;0.32;0.32;;;16.40;1.00;;;;;;4886618;29;20211;-66
2022/11/16 13:22:52;;;;;;;0.30;0.30;;;16.20;1.00;;;;;;4901607;29;20201;-66
2022/11/16 13:25:44;;;;;;;0.30;0.30;;;16.30;1.00;;;;;;4886165;29;20271;-64
2022/11/16 13:28:16;;;;;;;0.30;0.30;;;15.70;1.00;;;;;;4902078;29;20232;-65
2022/11/16 13:31:13;;;;;;;0.30;0.30;;;15.60;1.00;;;;;;4902664;29;20198;-65
2022/11/16 13:33:43;;;;;;;0.30;0.30;;;15.60;1.00;;;;;;4902619;29;20201;-66
2022/11/16 13:36:35;;;;;;;0.40;0.40;;;15.60;1.00;;;;;;4903040;29;20204;-66
2022/11/16 13:39:04;;;;;;;0.20;0.20;;;15.40;1.00;;;;;;4902471;29;20280;-65
2022/11/16 13:41:39;;;;;;;0.30;0.30;;;15.30;1.00;;;;;;4885065;29;20281;-64
2022/11/16 13:44:15;;;;;;;0.30;0.30;;;15.30;1.00;;;;;;4870514;29;20204;-64
2022/11/16 13:46:46;;;;;;;7.13;1.67;;;15.10;1.00;;;;;;4901768;29;20619;-64
2022/11/16 13:49:30;;;;;;;6.63;3.10;;;15.10;1.00;;;;;;4900437;29;20553;-66
2022/11/16 13:52:03;;;;;;;5.50;1.90;;;15.20;1.00;;;;;;4901199;29;20222;-66
2022/11/16 13:54:53;;;;;;;5.35;1.35;;;14.90;1.00;;;;;;4899815;29;20688;-66
2022/11/16 13:57:33;;;;;;;6.65;1.70;;;14.60;1.00;;;;;;4901701;29;20196;-66
2022/11/16 14:00:00;;;;;;;6.97;1.88;;;14.60;1.00;;;;;;4879876;29;20219;-66
2022/11/16 14:02:40;;;;;;;3.95;2.03;;;14.40;1.00;;;;;;4879803;29;20288;-65
2022/11/16 14:05:39;;;;;;;4.13;1.33;;;14.50;1.00;;;;;;4889351;29;20311;-65
2022/11/16 14:08:29;;;;;;;7.78;2.75;;;14.50;1.00;;;;;;4900901;29;20244;-65
2022/11/16 14:10:59;;;;;;;5.35;1.70;;;14.40;1.00;;;;;;4898098;29;20557;-64
2022/11/16 14:13:44;;;;;;;6.43;1.80;;;14.40;1.00;;;;;;4878235;29;21057;-65